sensor_id;sensor_type;location;lat;lon;timestamp;P1;durP1;ratioP1;P2;durP2;ratioP2
3261;SDS011;1643;47.746;9.000;2023-09-08T00:00:55;6.43;;;5.83;;
3261;SDS011;1643;47.746;9.000;2023-09-08T00:03:21;5.30;;;4.80;;
3261;SDS011;1643;47.746;9.000;2023-09-08T00:05:47;6.10;;;5.60;;
3261;SDS011;1643;47.746;9.000;2023-09-08T00:08:13;5.70;;;5.20;;
3261;SDS011;1643;47.746;9.000;2023-09-08T00:10:38;6.00;;;5.50;;
3261;SDS011;1643;47.746;9.000;2023-09-08T00:13:04;6.17;;;5.67;;
3261;SDS011;1643;47.746;9.000;2023-09-08T00:15:30;6.40;;;5.33;;
3261;SDS011;1643;47.746;9.000;2023-09-08T00:17:58;5.93;;;5.43;;
3261;SDS011;1643;47.746;9.000;2023-09-08T00:20:24;6.33;;;5.73;;
3261;SDS011;1643;47.746;9.000;2023-09-08T00:22:50;6.07;;;5.50;;
3261;SDS011;1643;47.746;9.000;2023-09-08T00:25:15;7.23;;;5.70;;
3261;SDS011;1643;47.746;9.000;2023-09-08T00:27:41;7.20;;;5.80;;
3261;SDS011;1643;47.746;9.000;2023-09-08T00:30:07;5.33;;;4.83;;
3261;SDS011;1643;47.746;9.000;2023-09-08T00:32:33;7.23;;;5.37;;
3261;SDS011;1643;47.746;9.000;2023-09-08T00:34:58;5.63;;;5.13;;
3261;SDS011;1643;47.746;9.000;2023-09-08T00:37:24;5.80;;;5.30;;
3261;SDS011;1643;47.746;9.000;2023-09-08T00:39:50;6.83;;;6.23;;
3261;SDS011;1643;47.746;9.000;2023-09-08T00:42:15;5.30;;;4.90;;
3261;SDS011;1643;47.746;9.000;2023-09-08T00:44:41;6.03;;;5.53;;
3261;SDS011;1643;47.746;9.000;2023-09-08T00:47:06;5.57;;;5.07;;
3261;SDS011;1643;47.746;9.000;2023-09-08T00:49:32;5.07;;;4.67;;
3261;SDS011;1643;47.746;9.000;2023-09-08T00:51:59;5.60;;;5.10;;
3261;SDS011;1643;47.746;9.000;2023-09-08T00:54:25;5.50;;;5.00;;
3261;SDS011;1643;47.746;9.000;2023-09-08T00:56:56;6.07;;;5.53;;
3261;SDS011;1643;47.746;9.000;2023-09-08T00:59:23;6.10;;;5.60;;
3261;SDS011;1643;47.746;9.000;2023-09-08T01:01:50;7.83;;;5.40;;
3261;SDS011;1643;47.746;9.000;2023-09-08T01:04:16;6.10;;;5.60;;
3261;SDS011;1643;47.746;9.000;2023-09-08T01:06:41;11.07;;;5.50;;
3261;SDS011;1643;47.746;9.000;2023-09-08T01:09:08;6.47;;;5.87;;
3261;SDS011;1643;47.746;9.000;2023-09-08T01:11:35;5.43;;;4.93;;
3261;SDS011;1643;47.746;9.000;2023-09-08T01:14:01;6.20;;;5.60;;
3261;SDS011;1643;47.746;9.000;2023-09-08T01:16:27;6.93;;;5.57;;
3261;SDS011;1643;47.746;9.000;2023-09-08T01:18:52;5.57;;;5.07;;
3261;SDS011;1643;47.746;9.000;2023-09-08T01:24:17;5.63;;;5.10;;
3261;SDS011;1643;47.746;9.000;2023-09-08T01:26:43;5.77;;;5.23;;
3261;SDS011;1643;47.746;9.000;2023-09-08T01:29:09;6.50;;;5.90;;
3261;SDS011;1643;47.746;9.000;2023-09-08T01:31:36;7.50;;;5.20;;
3261;SDS011;1643;47.746;9.000;2023-09-08T01:34:03;6.53;;;5.27;;
3261;SDS011;1643;47.746;9.000;2023-09-08T01:36:31;5.37;;;4.60;;
3261;SDS011;1643;47.746;9.000;2023-09-08T01:38:58;6.03;;;5.53;;
3261;SDS011;1643;47.746;9.000;2023-09-08T01:41:24;5.70;;;4.90;;
3261;SDS011;1643;47.746;9.000;2023-09-08T01:43:50;5.57;;;5.00;;
3261;SDS011;1643;47.746;9.000;2023-09-08T01:46:16;6.40;;;5.70;;
3261;SDS011;1643;47.746;9.000;2023-09-08T01:48:41;6.20;;;5.20;;
3261;SDS011;1643;47.746;9.000;2023-09-08T01:51:07;5.70;;;5.20;;
3261;SDS011;1643;47.746;9.000;2023-09-08T01:53:32;7.33;;;5.60;;
3261;SDS011;1643;47.746;9.000;2023-09-08T01:55:59;5.67;;;5.07;;
3261;SDS011;1643;47.746;9.000;2023-09-08T01:58:24;6.33;;;5.50;;
3261;SDS011;1643;47.746;9.000;2023-09-08T02:00:51;5.70;;;5.10;;
3261;SDS011;1643;47.746;9.000;2023-09-08T02:03:17;5.43;;;4.93;;
3261;SDS011;1643;47.746;9.000;2023-09-08T02:05:42;5.30;;;4.90;;
3261;SDS011;1643;47.746;9.000;2023-09-08T02:08:09;4.53;;;4.20;;
3261;SDS011;1643;47.746;9.000;2023-09-08T02:10:35;8.10;;;5.50;;
3261;SDS011;1643;47.746;9.000;2023-09-08T02:13:00;8.10;;;5.67;;
3261;SDS011;1643;47.746;9.000;2023-09-08T02:15:26;5.80;;;5.30;;
3261;SDS011;1643;47.746;9.000;2023-09-08T02:17:55;6.00;;;5.50;;
3261;SDS011;1643;47.746;9.000;2023-09-08T02:20:21;5.03;;;4.40;;
3261;SDS011;1643;47.746;9.000;2023-09-08T02:22:49;7.53;;;5.20;;
3261;SDS011;1643;47.746;9.000;2023-09-08T02:25:18;5.90;;;5.40;;
3261;SDS011;1643;47.746;9.000;2023-09-08T02:27:43;5.13;;;4.73;;
3261;SDS011;1643;47.746;9.000;2023-09-08T02:30:09;5.97;;;5.40;;
3261;SDS011;1643;47.746;9.000;2023-09-08T02:32:35;5.70;;;4.97;;
3261;SDS011;1643;47.746;9.000;2023-09-08T02:35:00;6.40;;;5.90;;
3261;SDS011;1643;47.746;9.000;2023-09-08T02:37:26;6.07;;;4.87;;
3261;SDS011;1643;47.746;9.000;2023-09-08T02:39:52;8.50;;;5.03;;
3261;SDS011;1643;47.746;9.000;2023-09-08T02:42:17;5.87;;;5.37;;
3261;SDS011;1643;47.746;9.000;2023-09-08T02:44:43;6.70;;;4.90;;
3261;SDS011;1643;47.746;9.000;2023-09-08T02:47:09;5.57;;;5.07;;
3261;SDS011;1643;47.746;9.000;2023-09-08T02:49:35;6.37;;;5.70;;
3261;SDS011;1643;47.746;9.000;2023-09-08T02:52:01;6.03;;;5.50;;
3261;SDS011;1643;47.746;9.000;2023-09-08T02:54:26;7.60;;;5.17;;
3261;SDS011;1643;47.746;9.000;2023-09-08T02:56:52;6.03;;;5.53;;
3261;SDS011;1643;47.746;9.000;2023-09-08T02:59:18;5.27;;;4.87;;
3261;SDS011;1643;47.746;9.000;2023-09-08T03:01:43;6.93;;;5.80;;
3261;SDS011;1643;47.746;9.000;2023-09-08T03:04:09;6.43;;;5.47;;
3261;SDS011;1643;47.746;9.000;2023-09-08T03:06:34;6.13;;;5.30;;
3261;SDS011;1643;47.746;9.000;2023-09-08T03:09:00;6.43;;;5.50;;
3261;SDS011;1643;47.746;9.000;2023-09-08T03:11:26;5.73;;;5.13;;
3261;SDS011;1643;47.746;9.000;2023-09-08T03:13:51;5.33;;;4.83;;
3261;SDS011;1643;47.746;9.000;2023-09-08T03:16:17;5.60;;;5.10;;
3261;SDS011;1643;47.746;9.000;2023-09-08T03:18:43;5.30;;;4.80;;
3261;SDS011;1643;47.746;9.000;2023-09-08T03:21:08;6.67;;;6.07;;
3261;SDS011;1643;47.746;9.000;2023-09-08T03:26:03;6.13;;;4.80;;
3261;SDS011;1643;47.746;9.000;2023-09-08T03:28:29;5.87;;;5.10;;
3261;SDS011;1643;47.746;9.000;2023-09-08T03:30:55;5.70;;;5.20;;
3261;SDS011;1643;47.746;9.000;2023-09-08T03:33:20;5.67;;;5.17;;
3261;SDS011;1643;47.746;9.000;2023-09-08T03:35:46;6.23;;;5.63;;
3261;SDS011;1643;47.746;9.000;2023-09-08T03:38:11;5.97;;;5.47;;
3261;SDS011;1643;47.746;9.000;2023-09-08T03:40:37;6.57;;;5.70;;
3261;SDS011;1643;47.746;9.000;2023-09-08T03:43:03;5.67;;;5.17;;
3261;SDS011;1643;47.746;9.000;2023-09-08T03:45:29;6.40;;;5.43;;
3261;SDS011;1643;47.746;9.000;2023-09-08T03:47:55;6.00;;;5.40;;
3261;SDS011;1643;47.746;9.000;2023-09-08T03:50:20;6.40;;;5.80;;
3261;SDS011;1643;47.746;9.000;2023-09-08T03:52:46;5.90;;;5.40;;
3261;SDS011;1643;47.746;9.000;2023-09-08T03:55:11;6.00;;;5.40;;
3261;SDS011;1643;47.746;9.000;2023-09-08T03:57:37;5.50;;;5.00;;
3261;SDS011;1643;47.746;9.000;2023-09-08T04:00:03;6.10;;;5.50;;
3261;SDS011;1643;47.746;9.000;2023-09-08T04:02:31;6.23;;;5.63;;
3261;SDS011;1643;47.746;9.000;2023-09-08T04:04:57;6.00;;;5.40;;
3261;SDS011;1643;47.746;9.000;2023-09-08T04:07:22;6.07;;;5.57;;
3261;SDS011;1643;47.746;9.000;2023-09-08T04:09:48;6.20;;;5.43;;
3261;SDS011;1643;47.746;9.000;2023-09-08T04:12:13;5.83;;;5.33;;
3261;SDS011;1643;47.746;9.000;2023-09-08T04:14:39;5.90;;;5.40;;
3261;SDS011;1643;47.746;9.000;2023-09-08T04:17:05;6.20;;;5.53;;
3261;SDS011;1643;47.746;9.000;2023-09-08T04:19:30;5.90;;;5.40;;
3261;SDS011;1643;47.746;9.000;2023-09-08T04:21:56;6.53;;;5.90;;
3261;SDS011;1643;47.746;9.000;2023-09-08T04:24:22;6.73;;;6.10;;
3261;SDS011;1643;47.746;9.000;2023-09-08T04:26:47;5.83;;;5.23;;
3261;SDS011;1643;47.746;9.000;2023-09-08T04:29:13;6.60;;;6.00;;
3261;SDS011;1643;47.746;9.000;2023-09-08T04:31:38;5.97;;;5.43;;
3261;SDS011;1643;47.746;9.000;2023-09-08T04:34:04;6.13;;;5.63;;
3261;SDS011;1643;47.746;9.000;2023-09-08T04:36:30;5.90;;;5.30;;
3261;SDS011;1643;47.746;9.000;2023-09-08T04:38:55;5.90;;;5.30;;
3261;SDS011;1643;47.746;9.000;2023-09-08T04:41:21;6.33;;;5.53;;
3261;SDS011;1643;47.746;9.000;2023-09-08T04:43:47;6.27;;;5.67;;
3261;SDS011;1643;47.746;9.000;2023-09-08T04:46:13;5.83;;;5.33;;
3261;SDS011;1643;47.746;9.000;2023-09-08T04:48:38;6.63;;;5.93;;
3261;SDS011;1643;47.746;9.000;2023-09-08T04:51:04;5.13;;;4.73;;
3261;SDS011;1643;47.746;9.000;2023-09-08T04:53:30;7.70;;;6.20;;
3261;SDS011;1643;47.746;9.000;2023-09-08T04:55:55;9.23;;;5.60;;
3261;SDS011;1643;47.746;9.000;2023-09-08T04:58:21;6.00;;;5.40;;
3261;SDS011;1643;47.746;9.000;2023-09-08T05:00:46;5.73;;;5.23;;
3261;SDS011;1643;47.746;9.000;2023-09-08T05:03:12;5.77;;;5.27;;
3261;SDS011;1643;47.746;9.000;2023-09-08T05:05:38;8.80;;;6.23;;
3261;SDS011;1643;47.746;9.000;2023-09-08T05:08:04;7.50;;;6.20;;
3261;SDS011;1643;47.746;9.000;2023-09-08T05:10:30;6.50;;;5.90;;
3261;SDS011;1643;47.746;9.000;2023-09-08T05:12:55;6.00;;;5.50;;
3261;SDS011;1643;47.746;9.000;2023-09-08T05:15:21;6.70;;;6.10;;
3261;SDS011;1643;47.746;9.000;2023-09-08T05:17:47;6.80;;;6.20;;
3261;SDS011;1643;47.746;9.000;2023-09-08T05:20:13;5.80;;;5.20;;
3261;SDS011;1643;47.746;9.000;2023-09-08T05:22:38;6.00;;;5.40;;
3261;SDS011;1643;47.746;9.000;2023-09-08T05:25:04;7.00;;;6.30;;
3261;SDS011;1643;47.746;9.000;2023-09-08T05:27:30;6.47;;;5.97;;
3261;SDS011;1643;47.746;9.000;2023-09-08T05:29:57;6.20;;;5.60;;
3261;SDS011;1643;47.746;9.000;2023-09-08T05:32:22;5.90;;;5.40;;
3261;SDS011;1643;47.746;9.000;2023-09-08T05:34:48;6.20;;;5.30;;
3261;SDS011;1643;47.746;9.000;2023-09-08T05:37:14;6.93;;;6.20;;
3261;SDS011;1643;47.746;9.000;2023-09-08T05:39:39;6.07;;;5.57;;
3261;SDS011;1643;47.746;9.000;2023-09-08T05:42:06;6.27;;;5.67;;
3261;SDS011;1643;47.746;9.000;2023-09-08T05:44:31;6.37;;;5.80;;
3261;SDS011;1643;47.746;9.000;2023-09-08T05:46:57;6.23;;;5.70;;
3261;SDS011;1643;47.746;9.000;2023-09-08T05:49:23;9.40;;;5.50;;
3261;SDS011;1643;47.746;9.000;2023-09-08T05:51:48;6.23;;;5.63;;
3261;SDS011;1643;47.746;9.000;2023-09-08T05:54:14;6.97;;;6.37;;
3261;SDS011;1643;47.746;9.000;2023-09-08T05:56:40;6.33;;;5.73;;
3261;SDS011;1643;47.746;9.000;2023-09-08T05:59:05;6.10;;;5.50;;
3261;SDS011;1643;47.746;9.000;2023-09-08T06:01:31;6.50;;;5.90;;
3261;SDS011;1643;47.746;9.000;2023-09-08T06:03:57;6.43;;;5.83;;
3261;SDS011;1643;47.746;9.000;2023-09-08T06:06:23;6.87;;;6.27;;
3261;SDS011;1643;47.746;9.000;2023-09-08T06:08:50;6.70;;;6.10;;
3261;SDS011;1643;47.746;9.000;2023-09-08T06:11:15;6.60;;;6.03;;
3261;SDS011;1643;47.746;9.000;2023-09-08T06:13:41;6.80;;;5.63;;
3261;SDS011;1643;47.746;9.000;2023-09-08T06:16:07;6.87;;;6.20;;
3261;SDS011;1643;47.746;9.000;2023-09-08T06:18:33;6.13;;;5.60;;
3261;SDS011;1643;47.746;9.000;2023-09-08T06:21:05;7.03;;;5.83;;
3261;SDS011;1643;47.746;9.000;2023-09-08T06:23:32;6.73;;;5.90;;
3261;SDS011;1643;47.746;9.000;2023-09-08T06:26:01;6.80;;;6.20;;
3261;SDS011;1643;47.746;9.000;2023-09-08T06:28:29;7.17;;;6.47;;
3261;SDS011;1643;47.746;9.000;2023-09-08T06:30:55;6.90;;;6.20;;
3261;SDS011;1643;47.746;9.000;2023-09-08T06:33:21;6.77;;;6.10;;
3261;SDS011;1643;47.746;9.000;2023-09-08T06:35:49;6.47;;;5.87;;
3261;SDS011;1643;47.746;9.000;2023-09-08T06:38:15;6.00;;;5.10;;
3261;SDS011;1643;47.746;9.000;2023-09-08T06:40:41;8.27;;;6.37;;
3261;SDS011;1643;47.746;9.000;2023-09-08T06:43:07;6.20;;;5.60;;
3261;SDS011;1643;47.746;9.000;2023-09-08T06:45:32;6.80;;;6.13;;
3261;SDS011;1643;47.746;9.000;2023-09-08T06:47:58;6.37;;;5.80;;
3261;SDS011;1643;47.746;9.000;2023-09-08T06:50:25;7.20;;;6.60;;
3261;SDS011;1643;47.746;9.000;2023-09-08T06:52:51;6.50;;;5.90;;
3261;SDS011;1643;47.746;9.000;2023-09-08T06:55:17;6.57;;;5.97;;
3261;SDS011;1643;47.746;9.000;2023-09-08T06:57:44;6.30;;;5.77;;
3261;SDS011;1643;47.746;9.000;2023-09-08T07:00:10;6.30;;;5.70;;
3261;SDS011;1643;47.746;9.000;2023-09-08T07:02:37;6.60;;;6.00;;
3261;SDS011;1643;47.746;9.000;2023-09-08T07:05:03;6.73;;;6.13;;
3261;SDS011;1643;47.746;9.000;2023-09-08T07:07:33;9.70;;;6.27;;
3261;SDS011;1643;47.746;9.000;2023-09-08T07:10:00;5.80;;;5.30;;
3261;SDS011;1643;47.746;9.000;2023-09-08T07:12:27;7.37;;;6.67;;
3261;SDS011;1643;47.746;9.000;2023-09-08T07:14:53;8.17;;;6.80;;
3261;SDS011;1643;47.746;9.000;2023-09-08T07:17:18;7.17;;;6.47;;
3261;SDS011;1643;47.746;9.000;2023-09-08T07:19:44;6.90;;;6.00;;
3261;SDS011;1643;47.746;9.000;2023-09-08T07:22:10;7.83;;;6.57;;
3261;SDS011;1643;47.746;9.000;2023-09-08T07:24:36;7.47;;;6.77;;
3261;SDS011;1643;47.746;9.000;2023-09-08T07:27:01;7.50;;;6.80;;
3261;SDS011;1643;47.746;9.000;2023-09-08T07:29:27;6.83;;;6.17;;
3261;SDS011;1643;47.746;9.000;2023-09-08T07:31:53;6.80;;;6.20;;
3261;SDS011;1643;47.746;9.000;2023-09-08T07:34:18;8.30;;;6.30;;
3261;SDS011;1643;47.746;9.000;2023-09-08T07:36:44;7.00;;;6.37;;
3261;SDS011;1643;47.746;9.000;2023-09-08T07:39:10;7.20;;;6.50;;
3261;SDS011;1643;47.746;9.000;2023-09-08T07:41:35;6.80;;;6.10;;
3261;SDS011;1643;47.746;9.000;2023-09-08T07:44:04;7.07;;;6.07;;
3261;SDS011;1643;47.746;9.000;2023-09-08T07:46:30;7.07;;;6.37;;
3261;SDS011;1643;47.746;9.000;2023-09-08T07:48:57;5.80;;;5.30;;
3261;SDS011;1643;47.746;9.000;2023-09-08T07:51:26;7.67;;;6.23;;
3261;SDS011;1643;47.746;9.000;2023-09-08T07:53:53;8.87;;;7.50;;
3261;SDS011;1643;47.746;9.000;2023-09-08T07:56:18;8.23;;;7.17;;
3261;SDS011;1643;47.746;9.000;2023-09-08T07:58:44;7.40;;;6.67;;
3261;SDS011;1643;47.746;9.000;2023-09-08T08:01:10;7.00;;;6.40;;
3261;SDS011;1643;47.746;9.000;2023-09-08T08:03:37;6.43;;;5.63;;
3261;SDS011;1643;47.746;9.000;2023-09-08T08:06:03;7.10;;;6.40;;
3261;SDS011;1643;47.746;9.000;2023-09-08T08:08:28;7.30;;;5.70;;
3261;SDS011;1643;47.746;9.000;2023-09-08T08:10:55;6.70;;;6.00;;
3261;SDS011;1643;47.746;9.000;2023-09-08T08:13:21;8.37;;;5.83;;
3261;SDS011;1643;47.746;9.000;2023-09-08T08:15:46;6.67;;;5.97;;
3261;SDS011;1643;47.746;9.000;2023-09-08T08:18:12;7.10;;;6.50;;
3261;SDS011;1643;47.746;9.000;2023-09-08T08:20:38;6.50;;;6.00;;
3261;SDS011;1643;47.746;9.000;2023-09-08T08:23:04;6.70;;;6.10;;
3261;SDS011;1643;47.746;9.000;2023-09-08T08:25:31;6.90;;;6.20;;
3261;SDS011;1643;47.746;9.000;2023-09-08T08:27:57;8.20;;;6.20;;
3261;SDS011;1643;47.746;9.000;2023-09-08T08:30:26;7.20;;;6.47;;
3261;SDS011;1643;47.746;9.000;2023-09-08T08:32:52;7.20;;;6.07;;
3261;SDS011;1643;47.746;9.000;2023-09-08T08:35:18;6.23;;;5.63;;
3261;SDS011;1643;47.746;9.000;2023-09-08T08:37:44;6.97;;;5.77;;
3261;SDS011;1643;47.746;9.000;2023-09-08T08:40:10;6.43;;;5.83;;
3261;SDS011;1643;47.746;9.000;2023-09-08T08:42:39;6.63;;;5.93;;
3261;SDS011;1643;47.746;9.000;2023-09-08T08:45:06;7.13;;;6.43;;
3261;SDS011;1643;47.746;9.000;2023-09-08T08:47:32;11.20;;;6.40;;
3261;SDS011;1643;47.746;9.000;2023-09-08T08:49:59;8.30;;;7.20;;
3261;SDS011;1643;47.746;9.000;2023-09-08T08:52:25;9.70;;;8.00;;
3261;SDS011;1643;47.746;9.000;2023-09-08T08:54:51;7.37;;;6.67;;
3261;SDS011;1643;47.746;9.000;2023-09-08T08:57:17;7.53;;;6.53;;
3261;SDS011;1643;47.746;9.000;2023-09-08T08:59:44;13.10;;;8.20;;
3261;SDS011;1643;47.746;9.000;2023-09-08T09:02:13;8.07;;;6.37;;
3261;SDS011;1643;47.746;9.000;2023-09-08T09:04:39;7.33;;;6.63;;
3261;SDS011;1643;47.746;9.000;2023-09-08T09:07:06;8.80;;;6.70;;
3261;SDS011;1643;47.746;9.000;2023-09-08T09:09:32;8.37;;;7.50;;
3261;SDS011;1643;47.746;9.000;2023-09-08T09:11:58;6.97;;;6.27;;
3261;SDS011;1643;47.746;9.000;2023-09-08T09:14:23;9.00;;;8.00;;
3261;SDS011;1643;47.746;9.000;2023-09-08T09:16:50;12.30;;;7.67;;
3261;SDS011;1643;47.746;9.000;2023-09-08T09:19:25;8.27;;;6.87;;
3261;SDS011;1643;47.746;9.000;2023-09-08T09:21:52;7.20;;;6.47;;
3261;SDS011;1643;47.746;9.000;2023-09-08T09:24:32;7.80;;;7.00;;
3261;SDS011;1643;47.746;9.000;2023-09-08T09:26:59;8.60;;;6.60;;
3261;SDS011;1643;47.746;9.000;2023-09-08T09:29:26;7.43;;;6.70;;
3261;SDS011;1643;47.746;9.000;2023-09-08T09:31:53;7.80;;;6.53;;
3261;SDS011;1643;47.746;9.000;2023-09-08T09:34:20;7.37;;;6.67;;
3261;SDS011;1643;47.746;9.000;2023-09-08T09:36:50;9.67;;;7.70;;
3261;SDS011;1643;47.746;9.000;2023-09-08T09:39:20;7.83;;;7.03;;
3261;SDS011;1643;47.746;9.000;2023-09-08T09:41:47;8.53;;;7.00;;
3261;SDS011;1643;47.746;9.000;2023-09-08T09:44:13;7.33;;;6.60;;
3261;SDS011;1643;47.746;9.000;2023-09-08T09:46:44;9.00;;;7.10;;
3261;SDS011;1643;47.746;9.000;2023-09-08T09:49:13;7.63;;;6.93;;
3261;SDS011;1643;47.746;9.000;2023-09-08T09:51:42;6.70;;;6.10;;
3261;SDS011;1643;47.746;9.000;2023-09-08T09:54:17;7.37;;;6.57;;
3261;SDS011;1643;47.746;9.000;2023-09-08T09:56:44;12.43;;;8.20;;
3261;SDS011;1643;47.746;9.000;2023-09-08T09:59:11;8.10;;;7.30;;
3261;SDS011;1643;47.746;9.000;2023-09-08T10:01:39;7.57;;;6.27;;
3261;SDS011;1643;47.746;9.000;2023-09-08T10:04:06;6.60;;;6.00;;
3261;SDS011;1643;47.746;9.000;2023-09-08T10:06:32;7.33;;;6.60;;
3261;SDS011;1643;47.746;9.000;2023-09-08T10:08:59;8.93;;;6.47;;
3261;SDS011;1643;47.746;9.000;2023-09-08T10:11:31;8.90;;;6.90;;
3261;SDS011;1643;47.746;9.000;2023-09-08T10:14:15;7.87;;;7.07;;
3261;SDS011;1643;47.746;9.000;2023-09-08T10:16:42;7.20;;;6.50;;
3261;SDS011;1643;47.746;9.000;2023-09-08T10:19:10;8.27;;;7.47;;
3261;SDS011;1643;47.746;9.000;2023-09-08T10:21:40;10.63;;;7.80;;
3261;SDS011;1643;47.746;9.000;2023-09-08T10:24:14;9.13;;;8.23;;
3261;SDS011;1643;47.746;9.000;2023-09-08T10:26:47;9.00;;;8.00;;
3261;SDS011;1643;47.746;9.000;2023-09-08T10:29:18;9.87;;;7.57;;
3261;SDS011;1643;47.746;9.000;2023-09-08T10:31:44;8.30;;;7.20;;
3261;SDS011;1643;47.746;9.000;2023-09-08T10:34:10;8.10;;;7.30;;
3261;SDS011;1643;47.746;9.000;2023-09-08T10:36:36;8.20;;;7.40;;
3261;SDS011;1643;47.746;9.000;2023-09-08T10:44:44;8.20;;;7.40;;
3261;SDS011;1643;47.746;9.000;2023-09-08T10:47:12;10.03;;;7.60;;
3261;SDS011;1643;47.746;9.000;2023-09-08T10:49:38;8.20;;;7.40;;
3261;SDS011;1643;47.746;9.000;2023-09-08T10:52:08;10.20;;;7.77;;
3261;SDS011;1643;47.746;9.000;2023-09-08T10:54:45;9.23;;;8.33;;
3261;SDS011;1643;47.746;9.000;2023-09-08T10:57:13;8.30;;;7.50;;
3261;SDS011;1643;47.746;9.000;2023-09-08T10:59:53;9.60;;;8.07;;
3261;SDS011;1643;47.746;9.000;2023-09-08T11:02:39;9.33;;;8.40;;
3261;SDS011;1643;47.746;9.000;2023-09-08T11:05:10;7.77;;;7.03;;
3261;SDS011;1643;47.746;9.000;2023-09-08T11:07:39;16.43;;;9.57;;
3261;SDS011;1643;47.746;9.000;2023-09-08T11:10:06;11.10;;;7.73;;
3261;SDS011;1643;47.746;9.000;2023-09-08T11:12:32;9.97;;;8.97;;
3261;SDS011;1643;47.746;9.000;2023-09-08T11:14:58;9.17;;;7.60;;
3261;SDS011;1643;47.746;9.000;2023-09-08T11:17:32;9.10;;;8.20;;
3261;SDS011;1643;47.746;9.000;2023-09-08T11:19:59;10.27;;;7.80;;
3261;SDS011;1643;47.746;9.000;2023-09-08T11:22:25;9.90;;;8.60;;
3261;SDS011;1643;47.746;9.000;2023-09-08T11:24:52;8.00;;;7.27;;
3261;SDS011;1643;47.746;9.000;2023-09-08T11:27:22;8.80;;;7.90;;
3261;SDS011;1643;47.746;9.000;2023-09-08T11:29:48;7.87;;;7.00;;
3261;SDS011;1643;47.746;9.000;2023-09-08T11:32:23;8.03;;;7.23;;
3261;SDS011;1643;47.746;9.000;2023-09-08T11:34:49;8.63;;;7.80;;
3261;SDS011;1643;47.746;9.000;2023-09-08T11:37:16;8.63;;;7.73;;
3261;SDS011;1643;47.746;9.000;2023-09-08T11:39:43;8.60;;;7.80;;
3261;SDS011;1643;47.746;9.000;2023-09-08T11:42:11;9.20;;;8.30;;
3261;SDS011;1643;47.746;9.000;2023-09-08T11:44:39;9.03;;;8.13;;
3261;SDS011;1643;47.746;9.000;2023-09-08T11:47:06;8.40;;;7.70;;
3261;SDS011;1643;47.746;9.000;2023-09-08T11:49:36;7.80;;;7.00;;
3261;SDS011;1643;47.746;9.000;2023-09-08T11:52:04;8.03;;;7.23;;
3261;SDS011;1643;47.746;9.000;2023-09-08T11:54:33;7.87;;;7.17;;
3261;SDS011;1643;47.746;9.000;2023-09-08T11:57:01;7.83;;;7.00;;
3261;SDS011;1643;47.746;9.000;2023-09-08T11:59:30;8.70;;;7.90;;
3261;SDS011;1643;47.746;9.000;2023-09-08T12:01:57;8.00;;;7.30;;
3261;SDS011;1643;47.746;9.000;2023-09-08T12:04:23;7.97;;;7.17;;
3261;SDS011;1643;47.746;9.000;2023-09-08T12:06:50;6.60;;;6.00;;
3261;SDS011;1643;47.746;9.000;2023-09-08T12:09:17;8.23;;;7.53;;
3261;SDS011;1643;47.746;9.000;2023-09-08T12:11:43;8.43;;;7.60;;
3261;SDS011;1643;47.746;9.000;2023-09-08T12:14:12;7.40;;;6.80;;
3261;SDS011;1643;47.746;9.000;2023-09-08T12:16:39;7.53;;;6.83;;
3261;SDS011;1643;47.746;9.000;2023-09-08T12:19:06;7.03;;;6.30;;
3261;SDS011;1643;47.746;9.000;2023-09-08T12:21:53;7.53;;;6.00;;
3261;SDS011;1643;47.746;9.000;2023-09-08T12:24:19;7.00;;;6.40;;
3261;SDS011;1643;47.746;9.000;2023-09-08T12:26:45;6.87;;;6.00;;
3261;SDS011;1643;47.746;9.000;2023-09-08T12:29:13;6.90;;;6.30;;
3261;SDS011;1643;47.746;9.000;2023-09-08T12:31:39;6.80;;;6.20;;
3261;SDS011;1643;47.746;9.000;2023-09-08T12:34:05;6.90;;;6.20;;
3261;SDS011;1643;47.746;9.000;2023-09-08T12:36:33;6.10;;;5.60;;
3261;SDS011;1643;47.746;9.000;2023-09-08T12:39:03;6.13;;;5.53;;
3261;SDS011;1643;47.746;9.000;2023-09-08T12:41:30;5.87;;;5.37;;
3261;SDS011;1643;47.746;9.000;2023-09-08T12:43:55;7.13;;;5.40;;
3261;SDS011;1643;47.746;9.000;2023-09-08T12:46:21;6.00;;;5.40;;
3261;SDS011;1643;47.746;9.000;2023-09-08T12:48:47;5.80;;;5.30;;
3261;SDS011;1643;47.746;9.000;2023-09-08T12:51:12;5.30;;;4.80;;
3261;SDS011;1643;47.746;9.000;2023-09-08T12:53:38;5.30;;;4.90;;
3261;SDS011;1643;47.746;9.000;2023-09-08T12:56:03;6.00;;;5.43;;
3261;SDS011;1643;47.746;9.000;2023-09-08T12:58:29;5.60;;;5.07;;
3261;SDS011;1643;47.746;9.000;2023-09-08T13:00:55;4.97;;;4.50;;
3261;SDS011;1643;47.746;9.000;2023-09-08T13:03:21;5.73;;;5.20;;
3261;SDS011;1643;47.746;9.000;2023-09-08T13:05:46;5.13;;;4.73;;
3261;SDS011;1643;47.746;9.000;2023-09-08T13:08:12;4.83;;;4.40;;
3261;SDS011;1643;47.746;9.000;2023-09-08T13:10:40;4.93;;;4.53;;
3261;SDS011;1643;47.746;9.000;2023-09-08T13:13:06;5.33;;;4.73;;
3261;SDS011;1643;47.746;9.000;2023-09-08T13:15:31;6.10;;;5.60;;
3261;SDS011;1643;47.746;9.000;2023-09-08T13:17:57;5.03;;;4.53;;
3261;SDS011;1643;47.746;9.000;2023-09-08T13:20:23;4.73;;;4.33;;
3261;SDS011;1643;47.746;9.000;2023-09-08T13:22:48;4.70;;;4.30;;
3261;SDS011;1643;47.746;9.000;2023-09-08T13:25:14;5.50;;;5.00;;
3261;SDS011;1643;47.746;9.000;2023-09-08T13:27:42;4.63;;;4.23;;
3261;SDS011;1643;47.746;9.000;2023-09-08T13:30:12;5.33;;;4.87;;
3261;SDS011;1643;47.746;9.000;2023-09-08T13:32:40;5.27;;;4.70;;
3261;SDS011;1643;47.746;9.000;2023-09-08T13:35:06;7.30;;;4.80;;
3261;SDS011;1643;47.746;9.000;2023-09-08T13:37:32;8.63;;;5.57;;
3261;SDS011;1643;47.746;9.000;2023-09-08T13:40:03;6.53;;;5.60;;
3261;SDS011;1643;47.746;9.000;2023-09-08T13:42:29;5.67;;;4.30;;
3261;SDS011;1643;47.746;9.000;2023-09-08T13:44:55;5.07;;;4.40;;
3261;SDS011;1643;47.746;9.000;2023-09-08T13:47:20;6.33;;;4.93;;
3261;SDS011;1643;47.746;9.000;2023-09-08T13:49:46;5.80;;;5.20;;
3261;SDS011;1643;47.746;9.000;2023-09-08T13:52:12;4.53;;;4.23;;
3261;SDS011;1643;47.746;9.000;2023-09-08T13:54:37;4.40;;;4.10;;
3261;SDS011;1643;47.746;9.000;2023-09-08T13:57:04;4.40;;;4.00;;
3261;SDS011;1643;47.746;9.000;2023-09-08T13:59:30;5.03;;;4.63;;
3261;SDS011;1643;47.746;9.000;2023-09-08T14:01:56;5.57;;;5.10;;
3261;SDS011;1643;47.746;9.000;2023-09-08T14:04:23;5.07;;;4.67;;
3261;SDS011;1643;47.746;9.000;2023-09-08T14:06:49;5.70;;;5.10;;
3261;SDS011;1643;47.746;9.000;2023-09-08T14:09:15;5.53;;;5.13;;
3261;SDS011;1643;47.746;9.000;2023-09-08T14:11:40;9.33;;;5.27;;
3261;SDS011;1643;47.746;9.000;2023-09-08T14:14:06;5.87;;;5.27;;
3261;SDS011;1643;47.746;9.000;2023-09-08T14:16:32;6.37;;;5.03;;
3261;SDS011;1643;47.746;9.000;2023-09-08T14:18:57;5.70;;;5.10;;
3261;SDS011;1643;47.746;9.000;2023-09-08T14:21:24;9.43;;;5.30;;
3261;SDS011;1643;47.746;9.000;2023-09-08T14:23:49;5.53;;;5.03;;
3261;SDS011;1643;47.746;9.000;2023-09-08T14:26:15;5.70;;;4.93;;
3261;SDS011;1643;47.746;9.000;2023-09-08T14:28:41;5.40;;;5.00;;
3261;SDS011;1643;47.746;9.000;2023-09-08T14:31:07;5.80;;;5.20;;
3261;SDS011;1643;47.746;9.000;2023-09-08T14:33:33;6.10;;;5.50;;
3261;SDS011;1643;47.746;9.000;2023-09-08T14:35:58;6.53;;;5.70;;
3261;SDS011;1643;47.746;9.000;2023-09-08T14:38:26;5.70;;;5.17;;
3261;SDS011;1643;47.746;9.000;2023-09-08T14:40:58;6.97;;;6.00;;
3261;SDS011;1643;47.746;9.000;2023-09-08T14:43:25;6.00;;;5.50;;
3261;SDS011;1643;47.746;9.000;2023-09-08T14:45:52;5.70;;;5.20;;
3261;SDS011;1643;47.746;9.000;2023-09-08T14:48:19;6.43;;;5.83;;
3261;SDS011;1643;47.746;9.000;2023-09-08T14:50:45;5.60;;;5.10;;
3261;SDS011;1643;47.746;9.000;2023-09-08T14:53:11;7.03;;;5.90;;
3261;SDS011;1643;47.746;9.000;2023-09-08T14:55:36;5.47;;;4.97;;
3261;SDS011;1643;47.746;9.000;2023-09-08T14:58:02;5.97;;;5.47;;
3261;SDS011;1643;47.746;9.000;2023-09-08T15:00:28;6.07;;;5.47;;
3261;SDS011;1643;47.746;9.000;2023-09-08T15:02:53;6.30;;;5.70;;
3261;SDS011;1643;47.746;9.000;2023-09-08T15:05:19;6.27;;;5.77;;
3261;SDS011;1643;47.746;9.000;2023-09-08T15:07:45;6.60;;;5.67;;
3261;SDS011;1643;47.746;9.000;2023-09-08T15:10:11;8.37;;;6.07;;
3261;SDS011;1643;47.746;9.000;2023-09-08T15:12:36;6.07;;;5.47;;
3261;SDS011;1643;47.746;9.000;2023-09-08T15:15:02;6.67;;;5.97;;
3261;SDS011;1643;47.746;9.000;2023-09-08T15:17:28;5.87;;;5.37;;
3261;SDS011;1643;47.746;9.000;2023-09-08T15:19:54;8.43;;;6.10;;
3261;SDS011;1643;47.746;9.000;2023-09-08T15:22:20;7.40;;;5.50;;